Falcon — WDH2087 — position and weather

sailwx.info

Track history (hours):
 
Tides and Currents Weather Stations Pressure Air Temp Water Temp Dewpoint Dewpoint Depression Visibility Wind Speed Wind Dir Waves Ship Positions

Falcon

Owner: Vane Line Bunkering, Inc., Philadelphia, PA. More information available from US FCC via Universal Licensing System.

Last reported at 2018-Jan-19 05:01 UTC. Time now 2018-Jan-20 16:51 UTC.
Position N 36°57' W 076°20'.

; draft 3.5 m.

MMSI: 367594260.

Date/timePositionNaut miles runAvg speedWind from/ knotsBaromVisibWave heightAir tempDewpointWater temp
2018-Jan-19 05:01N 36°57' W 076°20'0 6.9
2018-Jan-19 05:01N 36°57' W 076°20'3 6.5
2018-Jan-19 04:30N 36°54' W 076°20'3 6.0
2018-Jan-19 04:00N 36°51' W 076°18'3 6.0
2018-Jan-19 03:31N 36°48' W 076°17'0 0.1
2018-Jan-19 02:55N 36°48' W 076°17'0 0.0
2018-Jan-19 02:22N 36°48' W 076°17'0 0.0
2018-Jan-19 01:58N 36°48' W 076°17'0 0.0
2018-Jan-19 01:25N 36°48' W 076°17'0 0.0
2018-Jan-19 00:58N 36°48' W 076°17'0 0.0
2018-Jan-19 00:30N 36°48' W 076°17'0 0.0
2018-Jan-19 00:00N 36°48' W 076°17'0 0.0
2018-Jan-18 23:30N 36°48' W 076°17'0 0.0
2018-Jan-18 23:00N 36°48' W 076°17'0 0.8
2018-Jan-18 22:30N 36°48' W 076°18'0 0.0
2018-Jan-18 21:54N 36°48' W 076°18'0 0.0
2018-Jan-18 21:30N 36°48' W 076°18'0 0.0
2018-Jan-18 20:57N 36°48' W 076°18'0 0.0
2018-Jan-18 20:27N 36°48' W 076°18'0 0.0
2018-Jan-18 19:54N 36°48' W 076°18'0 0.0
2018-Jan-18 19:30N 36°48' W 076°18'0 0.0
2018-Jan-18 19:00N 36°48' W 076°18'0 0.0
2018-Jan-18 18:30N 36°48' W 076°18'0 0.0
2018-Jan-18 18:00N 36°48' W 076°18'0 0.0
2018-Jan-18 17:30N 36°48' W 076°18'0 0.0
2018-Jan-18 17:00N 36°48' W 076°18'0 0.0
2018-Jan-18 16:30N 36°48' W 076°18'0 0.0
2018-Jan-18 16:00N 36°48' W 076°18'0 0.0
2018-Jan-18 15:30N 36°48' W 076°18'0 0.0
2018-Jan-18 15:00N 36°48' W 076°18'0 0.0
2018-Jan-18 14:30N 36°48' W 076°18'0 0.0
2018-Jan-18 13:54N 36°48' W 076°18'0 0.0
2018-Jan-18 13:18N 36°48' W 076°18'0 0.0
2018-Jan-18 12:57N 36°48' W 076°18'0 0.0
2018-Jan-18 12:30N 36°48' W 076°18'0 0.0
2018-Jan-18 11:57N 36°48' W 076°18'0 0.0
2018-Jan-18 11:30N 36°48' W 076°18'0 0.0
2018-Jan-18 11:00N 36°48' W 076°18'0 0.0
2018-Jan-18 10:27N 36°48' W 076°18'0 0.0
2018-Jan-18 10:00N 36°48' W 076°18'0 0.0
2018-Jan-18 09:30N 36°48' W 076°18'0 0.0
2018-Jan-18 09:00N 36°48' W 076°18'0 0.0
2018-Jan-18 08:30N 36°48' W 076°18'0 0.0
2018-Jan-18 07:57N 36°48' W 076°18'0 0.0
2018-Jan-18 07:24N 36°48' W 076°18'0 0.0
2018-Jan-18 07:00N 36°48' W 076°18'0 0.0
2018-Jan-18 06:30N 36°48' W 076°18'0 0.0
2018-Jan-18 06:00N 36°48' W 076°18'0 0.0
2018-Jan-18 05:30N 36°48' W 076°18'0 0.0
2018-Jan-18 05:00N 36°48' W 076°18'0 0.0
2018-Jan-18 04:30N 36°48' W 076°18'0 0.0
2018-Jan-18 04:00N 36°48' W 076°18'0 0.0
2018-Jan-18 03:27N 36°48' W 076°18'0 0.0
2018-Jan-18 02:54N 36°48' W 076°18'0 0.0
2018-Jan-18 02:30N 36°48' W 076°18'0 0.0
2018-Jan-18 01:36N 36°48' W 076°18'0 0.0
2018-Jan-18 01:18N 36°48' W 076°18'0 0.0
2018-Jan-18 00:54N 36°48' W 076°18'0 0.0
2018-Jan-17 23:54N 36°48' W 076°18'  
2018-Jan-12 14:54N 36°48' W 076°17'0 0.0
2018-Jan-12 14:30N 36°48' W 076°17'0 0.0
2018-Jan-12 14:00N 36°48' W 076°17'0 0.0
2018-Jan-12 13:31N 36°48' W 076°17'0 0.0
2018-Jan-12 13:00N 36°48' W 076°17'0 0.0
2018-Jan-12 12:31N 36°48' W 076°17'0 0.0
2018-Jan-12 12:00N 36°48' W 076°17'0 0.0
2018-Jan-12 11:31N 36°48' W 076°17'0 0.0
2018-Jan-12 11:00N 36°48' W 076°17'0 0.0
2018-Jan-12 10:30N 36°48' W 076°17'0 0.2
2018-Jan-12 10:00N 36°48' W 076°18'2 3.5
2018-Jan-12 09:31N 36°50' W 076°18'3 6.6
2018-Jan-12 09:00N 36°53' W 076°20'4 7.4
2018-Jan-12 08:29N 36°56' W 076°20'84 5.8
2018-Jan-11 18:04N 38°16' W 075°47'0 6.5
2018-Jan-11 18:00N 38°16' W 075°46'3 5.3
2018-Jan-11 17:21N 38°19' W 075°44'11 0.4
2018-Jan-10 14:54N 38°13' W 075°55'2 5.2
2018-Jan-10 14:29N 38°13' W 075°58'2 4.6
2018-Jan-10 14:00N 38°13' W 076°01'3 5.0
2018-Jan-10 13:20N 38°13' W 076°05'4 6.3
2018-Jan-10 12:43N 38°12' W 076°10'1 3.1
2018-Jan-10 12:30N 38°12' W 076°10'  
Track history (hours):
 
Tides and Currents Weather Stations Pressure Air Temp Water Temp Dewpoint Dewpoint Depression Visibility Wind Speed Wind Dir Waves Ship Positions

Falcon

Owner: Vane Line Bunkering, Inc., Philadelphia, PA. More information available from US FCC via Universal Licensing System.

Last reported at 2018-Jan-19 05:01 UTC. Time now 2018-Jan-20 16:51 UTC.
Position N 36°57' W 076°20'.

; draft 3.5 m.

MMSI: 367594260.

Date/timePositionNaut miles runAvg speedWind from/ knotsBaromVisibWave heightAir tempDewpointWater temp
2018-Jan-19 05:01N 36°57' W 076°20'0 6.9
2018-Jan-19 05:01N 36°57' W 076°20'3 6.5
2018-Jan-19 04:30N 36°54' W 076°20'3 6.0
2018-Jan-19 04:00N 36°51' W 076°18'3 6.0
2018-Jan-19 03:31N 36°48' W 076°17'0 0.1
2018-Jan-19 02:55N 36°48' W 076°17'0 0.0
2018-Jan-19 02:22N 36°48' W 076°17'0 0.0
2018-Jan-19 01:58N 36°48' W 076°17'0 0.0
2018-Jan-19 01:25N 36°48' W 076°17'0 0.0
2018-Jan-19 00:58N 36°48' W 076°17'0 0.0
2018-Jan-19 00:30N 36°48' W 076°17'0 0.0
2018-Jan-19 00:00N 36°48' W 076°17'0 0.0
2018-Jan-18 23:30N 36°48' W 076°17'0 0.0
2018-Jan-18 23:00N 36°48' W 076°17'0 0.8
2018-Jan-18 22:30N 36°48' W 076°18'0 0.0
2018-Jan-18 21:54N 36°48' W 076°18'0 0.0
2018-Jan-18 21:30N 36°48' W 076°18'0 0.0
2018-Jan-18 20:57N 36°48' W 076°18'0 0.0
2018-Jan-18 20:27N 36°48' W 076°18'0 0.0
2018-Jan-18 19:54N 36°48' W 076°18'0 0.0
2018-Jan-18 19:30N 36°48' W 076°18'0 0.0
2018-Jan-18 19:00N 36°48' W 076°18'0 0.0
2018-Jan-18 18:30N 36°48' W 076°18'0 0.0
2018-Jan-18 18:00N 36°48' W 076°18'0 0.0
2018-Jan-18 17:30N 36°48' W 076°18'0 0.0
2018-Jan-18 17:00N 36°48' W 076°18'0 0.0
2018-Jan-18 16:30N 36°48' W 076°18'0 0.0
2018-Jan-18 16:00N 36°48' W 076°18'0 0.0
2018-Jan-18 15:30N 36°48' W 076°18'0 0.0
2018-Jan-18 15:00N 36°48' W 076°18'0 0.0
2018-Jan-18 14:30N 36°48' W 076°18'0 0.0
2018-Jan-18 13:54N 36°48' W 076°18'0 0.0
2018-Jan-18 13:18N 36°48' W 076°18'0 0.0
2018-Jan-18 12:57N 36°48' W 076°18'0 0.0
2018-Jan-18 12:30N 36°48' W 076°18'0 0.0
2018-Jan-18 11:57N 36°48' W 076°18'0 0.0
2018-Jan-18 11:30N 36°48' W 076°18'0 0.0
2018-Jan-18 11:00N 36°48' W 076°18'0 0.0
2018-Jan-18 10:27N 36°48' W 076°18'0 0.0
2018-Jan-18 10:00N 36°48' W 076°18'0 0.0
2018-Jan-18 09:30N 36°48' W 076°18'0 0.0
2018-Jan-18 09:00N 36°48' W 076°18'0 0.0
2018-Jan-18 08:30N 36°48' W 076°18'0 0.0
2018-Jan-18 07:57N 36°48' W 076°18'0 0.0
2018-Jan-18 07:24N 36°48' W 076°18'0 0.0
2018-Jan-18 07:00N 36°48' W 076°18'0 0.0
2018-Jan-18 06:30N 36°48' W 076°18'0 0.0
2018-Jan-18 06:00N 36°48' W 076°18'0 0.0
2018-Jan-18 05:30N 36°48' W 076°18'0 0.0
2018-Jan-18 05:00N 36°48' W 076°18'0 0.0
2018-Jan-18 04:30N 36°48' W 076°18'0 0.0
2018-Jan-18 04:00N 36°48' W 076°18'0 0.0
2018-Jan-18 03:27N 36°48' W 076°18'0 0.0
2018-Jan-18 02:54N 36°48' W 076°18'0 0.0
2018-Jan-18 02:30N 36°48' W 076°18'0 0.0
2018-Jan-18 01:36N 36°48' W 076°18'0 0.0
2018-Jan-18 01:18N 36°48' W 076°18'0 0.0
2018-Jan-18 00:54N 36°48' W 076°18'0 0.0
2018-Jan-17 23:54N 36°48' W 076°18'  
2018-Jan-12 14:54N 36°48' W 076°17'0 0.0
2018-Jan-12 14:30N 36°48' W 076°17'0 0.0
2018-Jan-12 14:00N 36°48' W 076°17'0 0.0
2018-Jan-12 13:31N 36°48' W 076°17'0 0.0
2018-Jan-12 13:00N 36°48' W 076°17'0 0.0
2018-Jan-12 12:31N 36°48' W 076°17'0 0.0
2018-Jan-12 12:00N 36°48' W 076°17'0 0.0
2018-Jan-12 11:31N 36°48' W 076°17'0 0.0
2018-Jan-12 11:00N 36°48' W 076°17'0 0.0
2018-Jan-12 10:30N 36°48' W 076°17'0 0.2
2018-Jan-12 10:00N 36°48' W 076°18'2 3.5
2018-Jan-12 09:31N 36°50' W 076°18'3 6.6
2018-Jan-12 09:00N 36°53' W 076°20'4 7.4
2018-Jan-12 08:29N 36°56' W 076°20'84 5.8
2018-Jan-11 18:04N 38°16' W 075°47'0 6.5
2018-Jan-11 18:00N 38°16' W 075°46'3 5.3
2018-Jan-11 17:21N 38°19' W 075°44'11 0.4
2018-Jan-10 14:54N 38°13' W 075°55'2 5.2
2018-Jan-10 14:29N 38°13' W 075°58'2 4.6
2018-Jan-10 14:00N 38°13' W 076°01'3 5.0
2018-Jan-10 13:20N 38°13' W 076°05'4 6.3
2018-Jan-10 12:43N 38°12' W 076°10'1 3.1
2018-Jan-10 12:30N 38°12' W 076°10'  

Dump ship's entire track history